Time;durP1;ratioP1;P1;durP2;ratioP2;P2;SDS_P1;SDS_P2;PMS_P1;PMS_P2;Temp;Humidity;BMP_temperature;BMP_pressure;BME280_temperature;BME280_humidity;BME280_pressure;Samples;Min_cycle;Max_cycle;Signal;HPM_P1;HPM_P2
2022/11/19 00:00:49;;;;;;;14.60;11.80;;;9.70;99.90;;;;;;5045277;28;20185;-89
2022/11/19 00:03:18;;;;;;;15.87;10.70;;;9.60;99.90;;;;;;5028239;28;20184;-88
2022/11/19 00:05:46;;;;;;;15.53;11.17;;;9.60;99.90;;;;;;5047545;28;20177;-87
2022/11/19 00:08:18;;;;;;;16.37;11.53;;;9.70;99.90;;;;;;5032049;28;20177;-87
2022/11/19 00:10:45;;;;;;;14.47;11.67;;;9.80;99.90;;;;;;5044456;28;20157;-87
2022/11/19 00:13:12;;;;;;;14.90;12.43;;;10.00;99.90;;;;;;5009253;28;20538;-87
2022/11/19 00:15:38;;;;;;;15.23;12.07;;;10.10;99.90;;;;;;5044996;28;20641;-88
2022/11/19 00:18:05;;;;;;;19.53;13.07;;;9.90;99.90;;;;;;5026888;28;20272;-86
2022/11/19 00:20:32;;;;;;;14.47;11.30;;;9.90;99.90;;;;;;5045934;28;20181;-87
2022/11/19 00:23:00;;;;;;;15.23;11.93;;;9.80;99.90;;;;;;5054095;28;20189;-86
2022/11/19 00:25:28;;;;;;;14.73;11.67;;;9.80;99.90;;;;;;5030838;28;20176;-88
2022/11/19 00:28:20;;;;;;;16.07;12.33;;;9.80;99.90;;;;;;5049493;28;20217;-87
2022/11/19 00:33:21;;;;;;;14.30;12.27;;;9.80;99.90;;;;;;5350935;22;20246;-89
2022/11/19 00:35:54;;;;;;;12.90;10.80;;;9.70;99.90;;;;;;5026681;28;20201;-87
2022/11/19 00:38:23;;;;;;;15.77;11.67;;;9.60;99.90;;;;;;5053311;28;20180;-87
2022/11/19 00:40:50;;;;;;;15.80;12.40;;;9.60;99.90;;;;;;5054117;28;20162;-86
2022/11/19 00:46:44;;;;;;;15.13;10.77;;;9.50;99.90;;;;;;5047203;28;20200;-82
2022/11/19 00:49:15;;;;;;;13.07;11.37;;;9.40;99.90;;;;;;5058641;28;20181;-86
2022/11/19 00:52:06;;;;;;;15.17;12.33;;;9.40;99.90;;;;;;5041475;28;20656;-88
2022/11/19 00:55:18;;;;;;;16.43;12.13;;;9.40;99.90;;;;;;5060498;28;20644;-82
2022/11/19 00:58:26;;;;;;;13.87;11.47;;;9.40;99.90;;;;;;5037940;28;20160;-81
2022/11/19 01:01:02;;;;;;;16.87;12.40;;;9.40;99.90;;;;;;5044236;28;20164;-81
2022/11/19 01:03:31;;;;;;;16.27;12.53;;;9.30;99.90;;;;;;5036098;28;20201;-81
2022/11/19 01:06:03;;;;;;;16.00;11.97;;;9.30;99.90;;;;;;5054225;28;20704;-84
2022/11/19 01:08:28;;;;;;;15.47;12.97;;;9.40;99.90;;;;;;5048660;28;20174;-84
2022/11/19 01:11:23;;;;;;;18.03;13.33;;;9.60;99.90;;;;;;5054542;28;20224;-88
2022/11/19 01:14:04;;;;;;;20.93;15.47;;;9.80;99.90;;;;;;5058835;28;20162;-85
2022/11/19 01:17:10;;;;;;;19.77;14.93;;;9.90;99.90;;;;;;5025625;28;20169;-88
2022/11/19 01:19:42;;;;;;;17.63;14.03;;;9.80;99.90;;;;;;5054350;28;20173;-88
2022/11/19 01:25:05;;;;;;;18.57;15.10;;;9.80;99.90;;;;;;2458887;22;20238;-88
2022/11/19 01:27:57;;;;;;;16.30;14.50;;;9.80;99.90;;;;;;5018181;28;20218;-88
2022/11/19 01:30:46;;;;;;;19.73;14.10;;;9.80;99.90;;;;;;5033953;28;20179;-86
2022/11/19 01:33:49;;;;;;;14.67;13.20;;;9.70;99.90;;;;;;5015385;28;20201;-88
2022/11/19 01:36:20;;;;;;;16.43;13.10;;;9.50;99.90;;;;;;4996390;28;20178;-87
2022/11/19 01:39:04;;;;;;;15.77;12.90;;;9.50;99.90;;;;;;5031481;28;20162;-87
2022/11/19 01:41:32;;;;;;;16.73;13.00;;;9.40;99.90;;;;;;5028932;28;20158;-87
2022/11/19 01:44:31;;;;;;;15.23;12.93;;;9.30;99.90;;;;;;4998484;28;20248;-86
2022/11/19 01:47:04;;;;;;;15.97;13.40;;;9.50;99.90;;;;;;4949257;29;20236;-87
2022/11/19 01:49:31;;;;;;;18.73;13.90;;;9.50;99.90;;;;;;5029680;28;20197;-86
2022/11/19 01:52:01;;;;;;;14.30;12.33;;;9.60;99.90;;;;;;5022799;28;20158;-83
2022/11/19 01:54:37;;;;;;;16.77;13.13;;;9.60;99.90;;;;;;5034040;23;20220;-86
2022/11/19 01:57:12;;;;;;;16.10;13.53;;;9.40;99.90;;;;;;5040295;28;20162;-88
2022/11/19 01:59:59;;;;;;;15.37;12.93;;;9.40;99.90;;;;;;5024412;28;20173;-88
2022/11/19 02:02:44;;;;;;;16.77;13.60;;;9.30;99.90;;;;;;5019686;28;20186;-88
2022/11/19 02:05:21;;;;;;;15.20;13.60;;;9.20;99.90;;;;;;5034993;28;20174;-85
2022/11/19 02:08:28;;;;;;;15.93;13.07;;;9.10;99.90;;;;;;5040845;28;20190;-86
2022/11/19 02:11:23;;;;;;;15.20;13.60;;;9.20;99.90;;;;;;5040328;28;20182;-85
2022/11/19 02:14:26;;;;;;;15.90;13.30;;;9.20;99.90;;;;;;5019985;28;20186;-87
2022/11/19 02:17:32;;;;;;;15.90;12.67;;;9.20;99.90;;;;;;5038172;28;20163;-87
2022/11/19 02:20:22;;;;;;;19.67;13.33;;;9.10;99.90;;;;;;5032490;28;20165;-87
2022/11/19 02:23:25;;;;;;;15.23;12.67;;;9.20;99.90;;;;;;5028455;28;20171;-87
2022/11/19 02:26:12;;;;;;;16.63;13.50;;;9.30;99.90;;;;;;5031590;28;20197;-86
2022/11/19 02:29:18;;;;;;;16.53;13.47;;;9.40;99.90;;;;;;5013874;28;20173;-87
2022/11/19 02:32:03;;;;;;;17.57;14.23;;;9.40;99.90;;;;;;5019561;28;20194;-86
2022/11/19 02:35:00;;;;;;;17.50;13.83;;;9.50;99.90;;;;;;5014372;28;20213;-86
2022/11/19 02:38:08;;;;;;;15.90;13.83;;;9.50;99.90;;;;;;5034772;28;20186;-86
2022/11/19 02:40:53;;;;;;;20.17;14.43;;;9.50;99.90;;;;;;5033465;28;20241;-85
2022/11/19 02:43:40;;;;;;;16.53;13.73;;;9.30;99.90;;;;;;5039807;28;20158;-87
2022/11/19 02:46:13;;;;;;;16.90;13.97;;;9.30;99.90;;;;;;5022798;28;20257;-85
2022/11/19 02:48:50;;;;;;;16.87;13.63;;;9.40;99.90;;;;;;5022898;28;20197;-84
2022/11/19 02:51:22;;;;;;;19.67;14.53;;;9.50;99.90;;;;;;5039005;28;20143;-83
2022/11/19 02:54:29;;;;;;;17.13;14.87;;;9.50;99.90;;;;;;5104319;23;20238;-85
2022/11/19 02:57:01;;;;;;;18.93;14.60;;;9.70;99.90;;;;;;5020555;28;20193;-88
2022/11/19 03:06:31;;;;;;;16.33;14.23;;;9.70;99.90;;;;;;5036114;28;20229;-86
2022/11/19 03:08:59;;;;;;;15.50;13.30;;;9.50;99.90;;;;;;5013780;28;20167;-85
2022/11/19 03:11:51;;;;;;;18.27;13.53;;;9.70;99.90;;;;;;5011907;28;20198;-83
2022/11/19 03:17:48;;;;;;;16.90;13.57;;;9.70;99.90;;;;;;5030660;28;20173;-84
2022/11/19 03:20:29;;;;;;;15.93;13.47;;;9.70;99.90;;;;;;4999714;28;20179;-83
2022/11/19 03:23:27;;;;;;;16.23;12.20;;;9.70;99.90;;;;;;5011312;28;20182;-83
2022/11/19 03:26:14;;;;;;;14.63;12.70;;;9.60;99.90;;;;;;5011205;28;20197;-82
2022/11/19 03:28:43;;;;;;;15.47;12.87;;;9.60;99.90;;;;;;5027260;28;20170;-82
2022/11/19 03:31:11;;;;;;;15.07;12.23;;;9.60;99.90;;;;;;5026465;28;20159;-83
2022/11/19 03:33:51;;;;;;;15.93;12.70;;;9.60;99.90;;;;;;5030477;28;20181;-81
2022/11/19 03:36:37;;;;;;;15.67;13.17;;;9.70;99.90;;;;;;5011633;28;20182;-80
2022/11/19 03:39:23;;;;;;;16.50;12.97;;;9.70;99.90;;;;;;5030697;28;20166;-84
2022/11/19 03:41:59;;;;;;;19.17;13.73;;;9.90;99.90;;;;;;5015613;28;20163;-81
2022/11/19 03:44:39;;;;;;;14.53;12.80;;;10.00;99.90;;;;;;5026286;28;20182;-82
2022/11/19 03:47:11;;;;;;;17.50;12.97;;;10.10;99.90;;;;;;4991597;28;20247;-83
2022/11/19 03:49:41;;;;;;;16.37;12.50;;;10.00;99.90;;;;;;4992509;28;20159;-82
2022/11/19 03:52:32;;;;;;;14.97;12.43;;;9.90;99.90;;;;;;5029390;23;20224;-82
2022/11/19 03:55:01;;;;;;;15.50;11.97;;;9.70;99.90;;;;;;5026021;28;20170;-82
2022/11/19 03:57:27;;;;;;;16.97;13.20;;;9.70;99.90;;;;;;5026640;28;20222;-81
2022/11/19 03:59:52;;;;;;;15.30;10.93;;;9.70;99.90;;;;;;4996518;28;20216;-81
2022/11/19 04:02:18;;;;;;;13.07;11.73;;;9.70;99.90;;;;;;5014011;28;20181;-82
2022/11/19 04:04:44;;;;;;;14.87;12.33;;;9.60;99.90;;;;;;5014109;28;20181;-82
2022/11/19 04:07:16;;;;;;;13.70;11.83;;;9.60;99.90;;;;;;5013817;28;20690;-81
2022/11/19 04:09:41;;;;;;;14.47;12.23;;;9.80;99.90;;;;;;4996472;28;20174;-81
2022/11/19 04:12:18;;;;;;;15.10;11.93;;;9.80;99.90;;;;;;5013938;28;20244;-80
2022/11/19 04:14:45;;;;;;;13.87;11.43;;;9.80;99.90;;;;;;4996399;28;20178;-82
2022/11/19 04:17:11;;;;;;;14.53;11.73;;;9.70;99.90;;;;;;4996493;28;20186;-81
2022/11/19 04:19:37;;;;;;;13.93;12.07;;;9.60;99.90;;;;;;4995278;28;20170;-81
2022/11/19 04:22:02;;;;;;;13.60;12.10;;;9.80;99.90;;;;;;4996090;28;20182;-82
2022/11/19 04:24:28;;;;;;;13.40;11.73;;;9.60;99.90;;;;;;5014737;28;20166;-88
2022/11/19 04:26:54;;;;;;;16.47;12.33;;;9.50;99.90;;;;;;4999231;28;20289;-87
2022/11/19 04:29:20;;;;;;;17.70;13.23;;;9.40;99.90;;;;;;5013585;28;20163;-88
2022/11/19 04:31:46;;;;;;;15.70;12.10;;;9.50;99.90;;;;;;5020479;28;20202;-84
2022/11/19 04:34:12;;;;;;;16.00;12.30;;;9.50;99.90;;;;;;5036935;28;20263;-88
2022/11/19 04:36:41;;;;;;;14.70;13.03;;;9.50;99.90;;;;;;5018947;28;20222;-87
2022/11/19 04:39:08;;;;;;;14.00;12.50;;;9.40;99.90;;;;;;5017401;28;20193;-88
2022/11/19 04:41:34;;;;;;;15.93;12.77;;;9.50;99.90;;;;;;5034588;28;20198;-88
2022/11/19 04:44:01;;;;;;;13.30;11.87;;;9.50;99.90;;;;;;5006703;28;20555;-87
2022/11/19 04:46:27;;;;;;;15.20;12.57;;;9.60;99.90;;;;;;5012078;28;20206;-87
2022/11/19 04:48:53;;;;;;;18.77;13.13;;;9.60;99.90;;;;;;5014764;28;20182;-85
2022/11/19 04:51:19;;;;;;;15.70;12.63;;;9.60;99.90;;;;;;4999385;28;20245;-84
2022/11/19 04:53:45;;;;;;;15.83;12.83;;;9.70;99.90;;;;;;5004003;28;20198;-86
2022/11/19 04:56:10;;;;;;;14.87;12.47;;;9.60;99.90;;;;;;5036293;28;20158;-84
2022/11/19 04:58:37;;;;;;;16.07;12.90;;;9.50;99.90;;;;;;5037817;28;20161;-84
2022/11/19 05:01:04;;;;;;;15.10;13.10;;;9.40;99.90;;;;;;5039815;28;20154;-83
2022/11/19 05:03:33;;;;;;;15.37;11.47;;;9.40;99.90;;;;;;5020520;28;20269;-85
2022/11/19 05:06:10;;;;;;;14.53;11.73;;;9.20;99.90;;;;;;5033228;28;20185;-85
2022/11/19 05:08:42;;;;;;;13.73;11.83;;;9.20;99.90;;;;;;5040127;28;20240;-83
2022/11/19 05:11:10;;;;;;;15.00;11.80;;;9.30;99.90;;;;;;5023609;28;20157;-82
2022/11/19 05:13:37;;;;;;;15.00;12.90;;;9.20;99.90;;;;;;5041416;28;20234;-84
2022/11/19 05:16:03;;;;;;;15.03;12.77;;;9.20;99.90;;;;;;5041437;28;20254;-83
2022/11/19 05:18:30;;;;;;;14.60;12.23;;;9.30;99.90;;;;;;5023104;28;20174;-82
2022/11/19 05:20:56;;;;;;;16.43;12.80;;;9.30;99.90;;;;;;5031135;28;20193;-87
2022/11/19 05:23:28;;;;;;;14.90;12.47;;;9.30;99.90;;;;;;5026844;28;20154;-82
2022/11/19 05:25:54;;;;;;;15.03;13.03;;;9.30;99.90;;;;;;5007386;28;20265;-87
2022/11/19 05:28:23;;;;;;;15.10;12.97;;;9.20;99.90;;;;;;5015427;28;20169;-84
2022/11/19 05:30:53;;;;;;;15.77;12.73;;;9.30;99.90;;;;;;5022852;28;20186;-80
2022/11/19 05:33:44;;;;;;;14.10;12.30;;;9.20;99.90;;;;;;5039545;28;20146;-81
2022/11/19 05:36:12;;;;;;;15.63;13.00;;;9.30;99.90;;;;;;5021403;28;20197;-85
2022/11/19 05:38:39;;;;;;;14.97;12.10;;;9.30;99.90;;;;;;5023109;28;20205;-84
2022/11/19 05:41:05;;;;;;;14.57;12.13;;;9.20;99.90;;;;;;5039022;28;20205;-86
2022/11/19 05:43:31;;;;;;;16.07;12.57;;;9.30;99.90;;;;;;5017964;28;20190;-85
2022/11/19 05:46:01;;;;;;;16.73;12.50;;;9.30;99.90;;;;;;5018224;28;20183;-85
2022/11/19 05:48:27;;;;;;;14.33;12.83;;;9.30;99.90;;;;;;5023669;28;20170;-86
2022/11/19 05:50:56;;;;;;;16.87;12.47;;;9.40;99.90;;;;;;5023613;28;20162;-86
2022/11/19 05:53:26;;;;;;;17.40;14.63;;;9.40;99.90;;;;;;5023637;28;20181;-85
2022/11/19 05:55:54;;;;;;;18.27;14.93;;;9.60;99.90;;;;;;5034147;28;20241;-82
2022/11/19 05:58:21;;;;;;;17.63;14.30;;;9.70;99.90;;;;;;5011261;28;20619;-84
2022/11/19 06:01:22;;;;;;;18.63;13.73;;;9.60;99.90;;;;;;4999639;28;20174;-83
2022/11/19 06:03:53;;;;;;;14.97;12.70;;;9.60;99.90;;;;;;4999113;28;20185;-84
2022/11/19 06:06:22;;;;;;;14.10;12.47;;;9.50;99.90;;;;;;4999975;28;20232;-81
2022/11/19 06:09:00;;;;;;;17.63;13.00;;;9.40;99.90;;;;;;5000290;28;20213;-86
2022/11/19 06:14:16;;;;;;;15.37;12.93;;;9.50;99.90;;;;;;5017446;28;20185;-82
2022/11/19 06:16:43;;;;;;;14.07;12.63;;;9.60;99.90;;;;;;5002592;28;20201;-82
2022/11/19 06:19:10;;;;;;;15.87;13.00;;;9.60;99.90;;;;;;5018648;28;20182;-83
2022/11/19 06:21:36;;;;;;;14.57;12.90;;;9.50;99.90;;;;;;5016840;28;20264;-85
2022/11/19 06:24:02;;;;;;;16.93;12.67;;;9.60;99.90;;;;;;5017891;28;20170;-83
2022/11/19 06:26:30;;;;;;;14.57;12.50;;;9.70;99.90;;;;;;4999866;28;20206;-81
2022/11/19 06:28:57;;;;;;;17.23;12.57;;;9.70;99.90;;;;;;5000352;28;20190;-81
2022/11/19 06:31:24;;;;;;;15.60;12.80;;;9.70;99.90;;;;;;5016982;28;20280;-83
2022/11/19 06:33:52;;;;;;;17.67;14.17;;;9.70;99.90;;;;;;5017320;28;20190;-82
2022/11/19 06:36:18;;;;;;;15.17;12.50;;;9.70;99.90;;;;;;4984319;28;20174;-88
2022/11/19 06:38:44;;;;;;;14.03;12.30;;;9.70;99.90;;;;;;5001698;28;20618;-87
2022/11/19 06:41:10;;;;;;;15.53;13.93;;;9.80;99.90;;;;;;5001986;28;20182;-87
2022/11/19 06:43:35;;;;;;;16.77;13.80;;;9.80;99.90;;;;;;5028197;28;20182;-87
2022/11/19 06:46:01;;;;;;;16.87;12.90;;;9.80;99.90;;;;;;5013439;28;20174;-86
2022/11/19 06:48:28;;;;;;;15.40;12.57;;;9.80;99.90;;;;;;5019144;28;20190;-87
2022/11/19 06:50:53;;;;;;;15.47;13.27;;;9.80;99.90;;;;;;4994748;28;20628;-87
2022/11/19 06:53:19;;;;;;;18.40;13.30;;;9.70;99.90;;;;;;4999583;28;20197;-88
2022/11/19 06:55:45;;;;;;;15.77;13.10;;;9.80;99.90;;;;;;5000013;28;20198;-86
2022/11/19 06:58:12;;;;;;;15.43;12.80;;;9.90;99.90;;;;;;4987211;28;20265;-86
2022/11/19 07:00:39;;;;;;;16.00;13.27;;;9.80;99.90;;;;;;5003616;28;20166;-89
2022/11/19 07:03:06;;;;;;;15.63;12.73;;;9.90;99.90;;;;;;5022239;28;20280;-88
2022/11/19 07:05:32;;;;;;;16.73;13.47;;;9.90;99.90;;;;;;5008234;28;20653;-89
2022/11/19 07:07:57;;;;;;;17.30;13.10;;;9.90;99.90;;;;;;5018860;28;20202;-88
2022/11/19 07:10:24;;;;;;;17.83;13.50;;;9.80;99.90;;;;;;5025517;28;20202;-87
2022/11/19 07:12:51;;;;;;;15.80;13.90;;;9.90;99.90;;;;;;5009989;28;20183;-89
2022/11/19 07:15:17;;;;;;;17.60;13.70;;;10.00;99.90;;;;;;5024809;28;20177;-84
2022/11/19 07:17:42;;;;;;;16.70;13.60;;;10.10;99.90;;;;;;5016982;28;20170;-86
2022/11/19 07:20:10;;;;;;;18.00;13.93;;;10.20;99.90;;;;;;4998740;28;20256;-84
2022/11/19 07:22:37;;;;;;;15.43;13.73;;;10.20;99.90;;;;;;5016687;28;20175;-83
2022/11/19 07:25:04;;;;;;;15.27;13.50;;;10.40;99.90;;;;;;5014458;28;20182;-82
2022/11/19 07:27:30;;;;;;;19.03;13.67;;;10.20;99.90;;;;;;4978687;28;20207;-83
2022/11/19 07:29:56;;;;;;;15.40;13.13;;;10.30;99.90;;;;;;5020849;28;20193;-84
2022/11/19 07:32:21;;;;;;;14.63;13.13;;;10.30;99.90;;;;;;4984276;28;20233;-85
2022/11/19 07:34:47;;;;;;;15.53;13.60;;;10.30;99.90;;;;;;4990631;28;20258;-86
2022/11/19 07:37:12;;;;;;;16.17;13.80;;;10.20;99.90;;;;;;4980358;28;20182;-88
2022/11/19 07:39:38;;;;;;;16.87;13.37;;;10.20;99.90;;;;;;5003524;28;20293;-86
2022/11/19 07:44:49;;;;;;;14.83;13.23;;;10.30;99.90;;;;;;5003162;28;20142;-86
2022/11/19 07:47:16;;;;;;;19.30;14.50;;;10.20;99.90;;;;;;4983976;28;20235;-86
2022/11/19 07:49:41;;;;;;;15.63;13.93;;;10.30;99.90;;;;;;5018238;28;20182;-87
2022/11/19 07:52:07;;;;;;;13.13;11.73;;;10.10;99.90;;;;;;4996937;28;20199;-82
2022/11/19 07:54:48;;;;;;;8.30;7.40;;;9.80;99.90;;;;;;5002801;28;20195;-86
2022/11/19 07:57:17;;;;;;;8.13;6.90;;;9.00;99.90;;;;;;4980507;28;20334;-85
2022/11/19 07:59:44;;;;;;;8.37;6.00;;;8.60;99.90;;;;;;4979312;28;20195;-87
2022/11/19 08:02:13;;;;;;;8.50;6.43;;;8.20;99.90;;;;;;4978638;28;20202;-85
2022/11/19 08:04:39;;;;;;;9.47;7.57;;;7.90;99.90;;;;;;4963723;28;20167;-86
2022/11/19 08:07:05;;;;;;;9.80;8.43;;;7.80;99.90;;;;;;4979807;28;20214;-86
2022/11/19 08:09:31;;;;;;;10.27;8.93;;;7.70;99.90;;;;;;4979111;28;20627;-87
2022/11/19 08:11:57;;;;;;;9.47;7.53;;;7.80;99.90;;;;;;4997934;28;20175;-87
2022/11/19 08:14:22;;;;;;;10.50;8.83;;;7.60;99.90;;;;;;4998930;28;20174;-85
2022/11/19 08:19:36;;;;;;;9.93;8.13;;;7.70;99.90;;;;;;5000464;28;20710;-87
2022/11/19 08:22:02;;;;;;;10.37;8.10;;;7.50;99.90;;;;;;4983799;28;20175;-88
2022/11/19 08:24:28;;;;;;;8.83;7.70;;;7.50;99.90;;;;;;5013130;28;20144;-86
2022/11/19 08:26:55;;;;;;;10.13;8.20;;;7.60;99.90;;;;;;5001804;28;20209;-83
2022/11/19 08:29:22;;;;;;;10.17;8.53;;;7.50;99.90;;;;;;5018670;28;20633;-86
2022/11/19 08:31:49;;;;;;;10.07;7.97;;;7.60;99.90;;;;;;5000712;28;20183;-86
2022/11/19 08:34:18;;;;;;;10.00;8.40;;;7.50;99.90;;;;;;5000189;28;20202;-83
2022/11/19 08:36:47;;;;;;;11.13;7.97;;;7.50;99.90;;;;;;4990621;28;20159;-87
2022/11/19 08:39:16;;;;;;;12.80;8.97;;;7.40;99.90;;;;;;5016051;28;20190;-82
2022/11/19 08:44:48;;;;;;;10.37;8.83;;;7.40;99.90;;;;;;5009273;28;20162;-89
2022/11/19 08:47:13;;;;;;;10.20;8.97;;;7.40;99.90;;;;;;4993996;28;20206;-92
2022/11/19 08:49:41;;;;;;;10.33;8.93;;;7.40;99.90;;;;;;5013426;28;20187;-86
2022/11/19 08:52:36;;;;;;;10.23;9.10;;;7.40;99.90;;;;;;5005174;28;20189;-84
2022/11/19 08:55:02;;;;;;;11.73;9.27;;;7.20;99.90;;;;;;5075276;23;20251;-85
2022/11/19 08:57:41;;;;;;;11.03;9.13;;;7.30;99.90;;;;;;5080522;28;20165;-90
2022/11/19 09:00:10;;;;;;;13.07;10.50;;;7.00;99.90;;;;;;5081179;28;20168;-90
2022/11/19 09:02:37;;;;;;;11.53;9.63;;;7.00;99.90;;;;;;5072768;28;20172;-88
2022/11/19 09:05:02;;;;;;;12.73;10.03;;;6.90;99.90;;;;;;5069377;28;20230;-89
2022/11/19 09:07:40;;;;;;;11.93;10.67;;;7.00;99.90;;;;;;5067535;28;20205;-90
2022/11/19 09:10:20;;;;;;;12.20;10.50;;;7.00;99.90;;;;;;5074163;28;20177;-87
2022/11/19 09:12:46;;;;;;;11.87;10.23;;;7.10;99.90;;;;;;5053815;28;20177;-89
2022/11/19 09:15:12;;;;;;;12.20;10.37;;;7.10;99.90;;;;;;5051248;28;20180;-91
2022/11/19 09:18:38;;;;;;;11.17;9.23;;;7.00;99.90;;;;;;5077631;28;20153;-89
2022/11/19 09:26:52;;;;;;;10.40;8.80;;;7.00;99.90;;;;;;5170971;23;20585;-90
2022/11/19 09:32:01;;;;;;;9.00;6.97;;;7.10;99.90;;;;;;5089904;22;20245;-90
2022/11/19 09:34:27;;;;;;;7.90;6.30;;;7.00;99.90;;;;;;5614114;22;21631;-86
2022/11/19 09:40:03;;;;;;;7.10;6.33;;;6.80;99.90;;;;;;5176360;22;20224;-92
2022/11/19 09:45:55;;;;;;;9.07;7.37;;;6.80;99.90;;;;;;5061488;23;20228;-94
2022/11/19 09:49:08;;;;;;;8.43;7.53;;;6.90;99.90;;;;;;5057001;28;20181;-88
2022/11/19 09:51:55;;;;;;;7.60;6.27;;;6.80;99.90;;;;;;5051957;28;20174;-87
2022/11/19 09:58:18;;;;;;;8.03;7.00;;;6.70;99.90;;;;;;5055925;28;20169;-86
2022/11/19 10:03:33;;;;;;;10.67;8.30;;;6.80;99.90;;;;;;4263427;22;20249;-81
2022/11/19 10:06:30;;;;;;;10.07;7.13;;;6.70;99.90;;;;;;5038924;28;20170;-81
2022/11/19 10:09:21;;;;;;;9.00;7.13;;;6.70;99.90;;;;;;5008842;28;20178;-80
2022/11/19 10:15:40;;;;;;;10.63;7.13;;;6.60;99.90;;;;;;5022854;28;20254;-84
2022/11/19 10:18:27;;;;;;;10.33;7.87;;;6.50;99.90;;;;;;5009427;28;20186;-83
2022/11/19 10:21:30;;;;;;;9.90;8.53;;;6.60;99.90;;;;;;5030783;28;20169;-83
2022/11/19 10:24:43;;;;;;;9.03;7.90;;;6.50;99.90;;;;;;5028533;28;20266;-82
2022/11/19 10:27:38;;;;;;;10.83;8.67;;;6.50;99.90;;;;;;5025504;28;20218;-80
2022/11/19 10:30:24;;;;;;;11.47;9.10;;;6.60;99.90;;;;;;5005806;28;20183;-82
2022/11/19 10:33:15;;;;;;;11.67;9.70;;;6.60;99.90;;;;;;4996863;28;20209;-84
2022/11/19 10:35:53;;;;;;;12.33;10.43;;;6.60;99.90;;;;;;5004985;28;20160;-85
2022/11/19 10:38:49;;;;;;;13.87;11.10;;;6.60;99.90;;;;;;5012722;28;20170;-81
2022/11/19 10:41:28;;;;;;;12.00;10.47;;;6.60;99.90;;;;;;5028734;28;20175;-86
2022/11/19 10:44:35;;;;;;;14.30;11.23;;;6.60;99.90;;;;;;5012278;28;20193;-88
2022/11/19 10:47:24;;;;;;;14.13;11.30;;;6.60;99.90;;;;;;5015330;28;20211;-88
2022/11/19 10:49:56;;;;;;;14.43;11.60;;;6.60;99.90;;;;;;4988600;28;20179;-89
2022/11/19 10:52:50;;;;;;;13.77;11.77;;;6.60;99.90;;;;;;5004021;28;20163;-83
2022/11/19 10:55:53;;;;;;;13.83;11.53;;;6.60;99.90;;;;;;5010506;28;20167;-89
2022/11/19 10:58:47;;;;;;;14.83;11.50;;;6.50;99.90;;;;;;4999694;28;20170;-90
2022/11/19 11:01:51;;;;;;;16.33;13.43;;;6.50;99.90;;;;;;5008068;28;20199;-92
2022/11/19 11:19:43;;;;;;;17.80;14.07;;;6.10;99.90;;;;;;5036301;28;20201;-92
2022/11/19 11:34:27;;;;;;;19.20;14.90;;;6.10;99.90;;;;;;5083317;22;20230;-88
2022/11/19 11:37:43;;;;;;;20.47;14.73;;;6.20;99.90;;;;;;4976814;28;20172;-92
2022/11/19 11:40:19;;;;;;;15.37;12.17;;;6.10;99.90;;;;;;4976863;28;20196;-90
2022/11/19 11:43:27;;;;;;;15.97;13.20;;;6.10;99.90;;;;;;5424273;22;20220;-90
2022/11/19 11:46:18;;;;;;;15.30;12.70;;;6.10;99.90;;;;;;5019704;28;20202;-90
2022/11/19 11:48:50;;;;;;;17.33;13.07;;;6.10;99.90;;;;;;5017915;28;20615;-89
2022/11/19 11:51:34;;;;;;;19.40;14.27;;;6.10;99.90;;;;;;5000648;28;20154;-88
2022/11/19 11:54:39;;;;;;;18.83;13.90;;;6.10;99.90;;;;;;5017033;28;20178;-88
2022/11/19 11:57:14;;;;;;;17.50;13.80;;;6.00;99.90;;;;;;5035619;28;20193;-84
2022/11/19 12:00:25;;;;;;;19.97;15.57;;;6.00;99.90;;;;;;5019693;28;20253;-83
2022/11/19 12:03:22;;;;;;;16.93;12.50;;;6.00;99.90;;;;;;5213832;22;20212;-85
2022/11/19 12:09:15;;;;;;;18.73;14.87;;;5.90;99.90;;;;;;5321457;22;20219;-86
2022/11/19 12:12:37;;;;;;;16.93;13.17;;;6.00;99.90;;;;;;5120209;23;20274;-85
2022/11/19 12:15:41;;;;;;;18.00;14.13;;;5.90;99.90;;;;;;5027945;28;20158;-85
2022/11/19 12:21:55;;;;;;;18.80;14.90;;;6.00;99.90;;;;;;5048829;28;20172;-92
2022/11/19 12:31:53;;;;;;;16.60;13.23;;;5.90;99.90;;;;;;5039289;28;20288;-82
2022/11/19 12:34:31;;;;;;;16.37;11.87;;;5.70;99.90;;;;;;5034056;28;20182;-84
2022/11/19 12:37:10;;;;;;;17.57;13.57;;;5.60;99.90;;;;;;5031034;28;20185;-83
2022/11/19 12:40:09;;;;;;;15.83;12.10;;;5.70;99.90;;;;;;5031383;28;20174;-85
2022/11/19 12:43:11;;;;;;;14.40;11.77;;;5.70;99.90;;;;;;5022028;28;20536;-87
2022/11/19 12:45:50;;;;;;;13.60;9.87;;;5.70;99.90;;;;;;5022943;28;20240;-88
2022/11/19 12:48:43;;;;;;;15.30;11.77;;;5.60;99.90;;;;;;5034995;28;20211;-86
2022/11/19 12:51:57;;;;;;;14.70;11.80;;;5.60;99.90;;;;;;5028901;28;20169;-86
2022/11/19 12:54:48;;;;;;;18.33;14.07;;;5.60;99.90;;;;;;5015655;28;20224;-87
2022/11/19 12:57:14;;;;;;;20.27;15.47;;;5.70;99.90;;;;;;5033211;28;20226;-85
2022/11/19 12:59:48;;;;;;;23.73;17.60;;;5.70;99.90;;;;;;5036857;28;20182;-87
2022/11/19 13:02:47;;;;;;;22.73;17.07;;;5.70;99.90;;;;;;5037064;28;20199;-89
2022/11/19 13:06:01;;;;;;;19.90;14.07;;;5.60;99.90;;;;;;5004808;28;20782;-84
2022/11/19 13:08:40;;;;;;;20.53;15.30;;;5.40;99.90;;;;;;5014148;28;20194;-89
2022/11/19 13:11:24;;;;;;;23.73;16.87;;;5.40;99.90;;;;;;5014264;28;20174;-85
2022/11/19 13:13:59;;;;;;;24.03;17.03;;;5.40;99.90;;;;;;5006799;28;20452;-88
2022/11/19 13:16:31;;;;;;;21.73;15.63;;;5.40;99.90;;;;;;5027089;28;20209;-84
2022/11/19 13:19:46;;;;;;;21.83;17.10;;;5.50;99.90;;;;;;5011340;28;20194;-86
2022/11/19 13:22:17;;;;;;;19.23;14.90;;;5.50;99.90;;;;;;4946166;29;20633;-89
2022/11/19 13:24:50;;;;;;;18.67;14.23;;;5.60;99.90;;;;;;4984471;28;20186;-88
2022/11/19 13:27:22;;;;;;;19.27;16.00;;;5.50;99.90;;;;;;5017437;28;20196;-85
2022/11/19 13:30:19;;;;;;;20.73;14.20;;;5.50;99.90;;;;;;4997781;28;20169;-87
2022/11/19 13:33:17;;;;;;;21.33;15.20;;;5.40;99.90;;;;;;5014857;28;20205;-84
2022/11/19 13:36:06;;;;;;;19.77;15.00;;;5.30;99.90;;;;;;5008847;28;20178;-85
2022/11/19 13:38:54;;;;;;;20.60;15.47;;;5.30;99.90;;;;;;5024988;28;20242;-82
2022/11/19 13:44:37;;;;;;;22.53;16.60;;;5.30;99.90;;;;;;5020869;28;20162;-87
2022/11/19 13:44:42;;;;;;;19.77;15.63;;;5.40;99.90;;;;;;5036579;28;20194;-88
2022/11/19 13:47:31;;;;;;;20.43;15.37;;;5.60;99.90;;;;;;5015207;28;20237;-85
2022/11/19 13:50:14;;;;;;;19.13;15.37;;;5.50;99.90;;;;;;4968763;28;20186;-82
2022/11/19 13:53:11;;;;;;;18.63;15.20;;;5.50;99.90;;;;;;5028921;28;20175;-82
2022/11/19 13:55:41;;;;;;;17.77;13.47;;;5.60;99.90;;;;;;5015417;28;20189;-83
2022/11/19 13:58:33;;;;;;;16.57;13.60;;;5.60;99.90;;;;;;5016655;28;20190;-84
2022/11/19 14:01:33;;;;;;;18.77;13.97;;;5.60;99.90;;;;;;5007675;28;20181;-86
2022/11/19 14:04:42;;;;;;;20.60;15.83;;;5.50;99.90;;;;;;5033026;28;20158;-87
2022/11/19 14:07:27;;;;;;;20.73;15.37;;;5.60;99.90;;;;;;5021361;28;20217;-86
2022/11/19 14:10:24;;;;;;;18.87;14.53;;;5.60;99.90;;;;;;5019153;28;20170;-86
2022/11/19 14:13:16;;;;;;;22.53;16.63;;;5.60;99.90;;;;;;5013068;28;20193;-86
2022/11/19 14:27:35;;;;;;;24.43;17.73;;;5.60;99.90;;;;;;5059287;28;20255;-87
2022/11/19 14:39:01;;;;;;;27.97;19.47;;;5.60;99.90;;;;;;5058877;28;20228;-87
2022/11/19 14:41:41;;;;;;;25.77;20.20;;;5.60;99.90;;;;;;5060123;28;20181;-85
2022/11/19 14:44:25;;;;;;;27.60;20.67;;;5.50;99.90;;;;;;5039072;28;20199;-84
2022/11/19 14:46:51;;;;;;;29.53;21.37;;;5.50;99.90;;;;;;5065564;28;20197;-88
2022/11/19 14:49:32;;;;;;;29.07;21.83;;;5.70;99.90;;;;;;5057181;28;20177;-87
2022/11/19 14:52:17;;;;;;;31.00;21.90;;;5.60;99.90;;;;;;5047496;28;20245;-86
2022/11/19 15:00:47;;;;;;;36.20;25.57;;;5.50;99.90;;;;;;5463928;23;20252;-87
2022/11/19 15:03:36;;;;;;;37.00;24.90;;;5.40;99.90;;;;;;5570230;22;20566;-86
2022/11/19 15:16:54;;;;;;;41.73;27.83;;;5.40;99.90;;;;;;3019516;22;20308;-83
2022/11/19 15:25:19;;;;;;;48.37;31.27;;;5.30;99.90;;;;;;5084590;22;20240;-85
2022/11/19 15:28:45;;;;;;;46.70;32.43;;;5.40;99.90;;;;;;5024380;28;20292;-84
2022/11/19 15:32:05;;;;;;;54.90;35.03;;;5.40;99.90;;;;;;5136988;23;20313;-86
2022/11/19 15:35:25;;;;;;;60.97;36.73;;;5.30;99.90;;;;;;5536364;23;20185;-84
2022/11/19 15:38:14;;;;;;;60.37;34.87;;;5.40;99.90;;;;;;4979219;28;20185;-85
2022/11/19 15:40:44;;;;;;;61.93;36.53;;;5.20;99.90;;;;;;5006590;28;20269;-83
2022/11/19 15:43:44;;;;;;;55.93;35.03;;;5.20;99.90;;;;;;5012448;28;20186;-85
2022/11/19 15:46:15;;;;;;;59.13;34.87;;;5.10;99.90;;;;;;5000959;28;20201;-83
2022/11/19 15:49:10;;;;;;;59.27;36.70;;;5.10;99.90;;;;;;5034151;28;20171;-83
2022/11/19 15:52:01;;;;;;;55.53;35.30;;;5.00;99.90;;;;;;5030982;28;20170;-84
2022/11/19 15:57:25;;;;;;;64.43;37.37;;;5.10;99.90;;;;;;5046480;23;20221;-84